Airfield :
LOGIN :

Register | Disclaimer

   EN    FR    IT 

 










Legend :    VFR   Marginal VFR   IFR   Intensive IFR   Very Intensive IFR
Visi :
Ceiling :
>= 8 km
>= 3000ft
5 to 8 km
1000 to 3000 ft
1500m to 5 km
500 to 1000 ft
800 to 1500m
200 to 500 ft
< 800m
< 200 ft
Symbols :   Thunderstorms  Fog  Heavy snow  Heavy precipitations  Wind > 20 kt
SIGMETs :     Misc.  Thunderstorms  Icing  Turbulence  Mountain Waves  Volcanic Ashes






- Airport Elevation : 1115 ft
- IATA code : GRZ


LOWG - Graz

CURRENT METAR :
  • 020250Z AUTO VRB02KT 5000 BR FEW002 BKN003 03/02 Q1021

EXPIRED METARs :
  • 020220Z AUTO 17002KT 5000 BR BKN001 03/02 Q1021
  • 020150Z AUTO VRB01KT 5000 BR BKN001 02/02 Q1021
  • 020120Z AUTO 16002KT 5000 BR FEW001 SCT002 BKN032 02/02 Q1021
  • 020050Z AUTO 16003KT 4500 BR FEW001 BKN030 02/02 Q1021
  • 020020Z AUTO 18004KT 4000 BR FEW002 BKN032 02/02 Q1021

TAF AMD TAF LOWG
Valid from the 02 at 02:00 until the 03 at 00:00 UTC


020201Z 0202/0224 VRB02KT 6000 SCT010 BKN030 TX02/0202Z TN01/0214Z
TEMPO 0202/0215 -DZ -RA BKN009
TEMPO 0202/0212 1200 RASN SN VV001
TEMPO 0215/0224 3000 BKN004



MET'MAP, your aeronautical weather chart ! - Copyright ORBIFLY December 2007 - Disclaimer

ORBIFLY MET'MAP TEAM :

Programming & Development : Alexandra Zaïnal
Original concept : Baudouin d'Aumeries
Technical & hardware support : Manuel Goepfert
Assistance : Marc-Olivier Méhu




SOURCES & CREDITS :

   NOAA